createdAt,value
2023-01-20T00:01:33.163Z,99418.53
2023-01-20T00:04:01.576Z,99410.88
2023-01-20T00:06:29.851Z,99410.16
2023-01-20T00:09:00.232Z,99418.50
2023-01-20T00:11:30.454Z,99417.03
2023-01-20T00:14:00.175Z,99410.97
2023-01-20T00:16:29.144Z,99410.25
2023-01-20T00:18:59.139Z,99409.50
2023-01-20T00:21:27.141Z,99416.25
2023-01-20T00:23:55.791Z,99424.69
2023-01-20T00:26:25.608Z,99437.13
2023-01-20T00:28:57.639Z,99439.06
2023-01-20T00:31:27.505Z,99445.41
2023-01-20T00:33:58.676Z,99443.97
2023-01-20T00:36:29.047Z,99450.53
2023-01-20T00:38:57.239Z,99462.00
2023-01-20T00:41:25.690Z,99456.88
2023-01-20T00:43:53.784Z,99459.84
2023-01-20T00:46:23.018Z,99461.78
2023-01-20T00:48:51.205Z,99466.31
2023-01-20T00:51:20.861Z,99467.53
2023-01-20T00:53:48.988Z,99477.38
2023-01-20T00:56:17.126Z,99478.38
2023-01-20T00:58:46.346Z,99470.59
2023-01-20T01:01:15.157Z,99460.25
2023-01-20T01:03:43.599Z,99465.72
2023-01-20T01:06:14.407Z,99457.81
2023-01-20T01:08:45.602Z,99451.88
2023-01-20T01:11:14.109Z,99430.47
2023-01-20T01:13:42.761Z,99430.69
2023-01-20T01:16:13.084Z,99432.53
2023-01-20T01:18:41.662Z,99433.50
2023-01-20T01:21:11.468Z,99429.25
2023-01-20T01:23:39.548Z,99420.75
2023-01-20T01:26:10.073Z,99423.31
2023-01-20T01:28:38.284Z,99424.28
2023-01-20T01:31:08.505Z,99411.28
2023-01-20T01:33:36.975Z,99405.94
2023-01-20T01:36:05.953Z,99398.16
2023-01-20T01:38:34.160Z,99398.16
2023-01-20T01:41:02.836Z,99402.78
2023-01-20T01:43:34.769Z,99396.44
2023-01-20T01:46:03.259Z,99394.03
2023-01-20T01:48:37.578Z,99401.06
2023-01-20T01:51:08.793Z,99394.16
2023-01-20T01:53:42.754Z,99385.56
2023-01-20T01:56:12.709Z,99387.38
2023-01-20T01:58:46.750Z,99386.53
2023-01-20T02:01:15.092Z,99368.03
2023-01-20T02:03:50.569Z,99377.16
2023-01-20T02:06:20.912Z,99381.69
2023-01-20T02:08:49.893Z,99375.59
2023-01-20T02:11:17.955Z,99385.47
2023-01-20T02:13:47.640Z,99381.94
2023-01-20T02:16:21.757Z,99381.19
2023-01-20T02:19:05.459Z,99371.47
2023-01-20T02:22:13.420Z,99379.75
2023-01-20T02:25:04.916Z,99384.25
2023-01-20T02:27:58.674Z,99379.03
2023-01-20T02:30:39.574Z,99383.69
2023-01-20T02:33:14.011Z,99377.72
2023-01-20T02:35:46.974Z,99387.44
2023-01-20T02:38:25.287Z,99382.34
2023-01-20T02:41:01.337Z,99381.50
2023-01-20T02:43:35.445Z,99381.63
2023-01-20T02:46:12.554Z,99387.09
2023-01-20T02:48:47.507Z,99393.41
2023-01-20T02:51:20.529Z,99392.69
2023-01-20T02:53:52.582Z,99391.00
2023-01-20T02:56:25.892Z,99393.78
2023-01-20T02:58:55.565Z,99394.78
2023-01-20T03:01:27.360Z,99399.28
2023-01-20T03:04:01.047Z,99395.97
2023-01-20T03:06:35.781Z,99407.56
2023-01-20T03:09:07.973Z,99406.69
2023-01-20T03:11:39.978Z,99410.34
2023-01-20T03:14:11.930Z,99421.88
2023-01-20T03:16:41.430Z,99425.53
2023-01-20T03:19:12.262Z,99419.47
2023-01-20T03:21:40.933Z,99418.75
2023-01-20T03:24:09.872Z,99422.41
2023-01-20T03:26:38.938Z,99428.47
2023-01-20T03:29:09.235Z,99422.41
2023-01-20T03:31:40.748Z,99429.19
2023-01-20T03:34:13.676Z,99432.34
2023-01-20T03:36:44.818Z,99434.41
2023-01-20T03:39:13.401Z,99429.16
2023-01-20T03:42:05.994Z,99431.81
2023-01-20T03:44:45.919Z,99418.66
2023-01-20T03:47:21.222Z,99411.91
2023-01-20T03:49:56.784Z,99417.34
2023-01-20T03:52:47.773Z,99416.00
2023-01-20T03:55:21.356Z,99416.84
2023-01-20T03:57:55.157Z,99406.84
2023-01-20T04:00:26.803Z,99405.88
2023-01-20T04:03:01.039Z,99406.59
2023-01-20T04:05:31.072Z,99397.72
2023-01-20T04:08:03.102Z,99410.25
2023-01-20T04:10:34.034Z,99396.88
2023-01-20T04:13:02.144Z,99400.53
2023-01-20T04:15:35.482Z,99404.44
2023-01-20T04:18:14.779Z,99405.16
2023-01-20T04:20:45.793Z,99406.16
2023-01-20T04:23:21.637Z,99401.03
2023-01-20T04:25:49.777Z,99411.72
2023-01-20T04:28:18.232Z,99404.25
2023-01-20T04:30:49.257Z,99405.09
2023-01-20T04:33:17.465Z,99405.44
2023-01-20T04:35:47.013Z,99413.13
2023-01-20T04:38:15.461Z,99414.94
2023-01-20T04:40:43.985Z,99410.31
2023-01-20T04:43:12.434Z,99413.47
2023-01-20T04:45:42.323Z,99414.50
2023-01-20T04:48:10.968Z,99421.06
2023-01-20T04:50:40.716Z,99417.88
2023-01-20T04:53:13.482Z,99421.50
2023-01-20T04:55:41.596Z,99422.53
2023-01-20T04:58:10.779Z,99421.47
2023-01-20T05:00:39.067Z,99399.53
2023-01-20T05:03:07.948Z,99386.31
2023-01-20T05:05:36.454Z,99378.19
2023-01-20T05:08:05.302Z,99377.63
2023-01-20T05:10:35.174Z,99369.22
2023-01-20T05:13:03.351Z,99361.91
2023-01-20T05:15:31.580Z,99361.09
2023-01-20T05:17:59.687Z,99362.97
2023-01-20T05:20:27.900Z,99352.09
2023-01-20T05:22:55.958Z,99360.31
2023-01-20T05:25:24.132Z,99362.06
2023-01-20T05:27:53.799Z,99356.72
2023-01-20T05:30:22.097Z,99366.63
2023-01-20T05:32:50.807Z,99366.06
2023-01-20T05:35:19.538Z,99365.06
2023-01-20T05:37:47.631Z,99373.38
2023-01-20T05:40:15.860Z,99376.50
2023-01-20T05:42:43.988Z,99383.28
2023-01-20T05:45:13.797Z,99372.53
2023-01-20T05:47:42.130Z,99374.25
2023-01-20T05:50:11.655Z,99369.16
2023-01-20T05:52:39.896Z,99376.22
2023-01-20T05:55:08.385Z,99372.97
2023-01-20T05:57:36.475Z,99373.38
2023-01-20T06:00:07.924Z,99375.22
2023-01-20T06:02:38.344Z,99378.06
2023-01-20T06:05:07.724Z,99388.25
2023-01-20T06:07:35.859Z,99384.97
2023-01-20T06:10:04.429Z,99381.88
2023-01-20T06:12:32.788Z,99383.88
2023-01-20T06:15:00.888Z,99380.44
2023-01-20T06:17:29.048Z,99379.03
2023-01-20T06:19:58.633Z,99367.75
2023-01-20T06:22:27.073Z,99366.31
2023-01-20T06:24:55.379Z,99367.75
2023-01-20T06:27:23.554Z,99373.34
2023-01-20T06:29:51.943Z,99359.53
2023-01-20T06:32:20.095Z,99360.06
2023-01-20T06:34:48.271Z,99366.53
2023-01-20T06:37:17.775Z,99358.19
2023-01-20T06:39:46.203Z,99360.88
2023-01-20T06:42:14.698Z,99365.66
2023-01-20T06:44:42.727Z,99375.84
2023-01-20T06:47:11.419Z,99382.44
2023-01-20T06:49:39.544Z,99383.72
2023-01-20T06:52:08.531Z,99383.97
2023-01-20T06:54:38.067Z,99396.09
2023-01-20T06:57:07.005Z,99398.06
2023-01-20T06:59:35.188Z,99404.28
2023-01-20T07:02:03.587Z,99395.25
2023-01-20T07:04:31.745Z,99396.38
2023-01-20T07:06:59.844Z,99400.50
2023-01-20T07:09:27.934Z,99403.75
2023-01-20T07:11:57.532Z,99403.09
2023-01-20T07:14:25.864Z,99409.31
2023-01-20T07:16:53.984Z,99404.84
2023-01-20T07:19:22.215Z,99412.38
2023-01-20T07:21:50.415Z,99413.94
2023-01-20T07:24:18.944Z,99420.72
2023-01-20T07:26:47.004Z,99426.84
2023-01-20T07:29:17.905Z,99419.78
2023-01-20T07:31:46.945Z,99420.63
2023-01-20T07:34:15.132Z,99428.94
2023-01-20T07:36:46.027Z,99426.22
2023-01-20T07:39:15.492Z,99426.25
2023-01-20T07:41:48.804Z,99420.00
2023-01-20T07:44:18.402Z,99425.34
2023-01-20T07:46:46.554Z,99421.25
2023-01-20T07:49:14.719Z,99423.91
2023-01-20T07:51:43.596Z,99419.34
2023-01-20T07:54:13.228Z,99424.53
2023-01-20T07:56:41.448Z,99430.03
2023-01-20T07:59:11.815Z,99433.69
2023-01-20T08:01:41.575Z,99439.00
2023-01-20T08:04:09.755Z,99440.13
2023-01-20T08:06:37.872Z,99439.81
2023-01-20T08:09:05.995Z,99444.59
2023-01-20T08:11:34.087Z,99449.84
2023-01-20T08:14:02.190Z,99437.38
2023-01-20T08:16:30.280Z,99445.28
2023-01-20T08:19:00.055Z,99445.44
2023-01-20T08:21:30.580Z,99445.56
2023-01-20T08:23:59.810Z,99450.28
2023-01-20T08:26:29.574Z,99446.34
2023-01-20T08:29:03.201Z,99458.25
2023-01-20T08:31:31.854Z,99457.69
2023-01-20T08:34:01.789Z,99456.00
2023-01-20T08:36:34.774Z,99454.59
2023-01-20T08:39:04.689Z,99458.59
2023-01-20T08:41:36.385Z,99454.63
2023-01-20T08:44:06.608Z,99451.25
2023-01-20T08:46:35.539Z,99461.47
2023-01-20T08:49:07.354Z,99458.25
2023-01-20T08:51:35.848Z,99463.03
2023-01-20T08:54:04.140Z,99458.97
2023-01-20T08:56:34.073Z,99462.94
2023-01-20T08:59:02.652Z,99467.63
2023-01-20T09:01:33.704Z,99470.59
2023-01-20T09:04:06.570Z,99462.97
2023-01-20T09:06:42.428Z,99465.78
2023-01-20T09:09:13.017Z,99473.31
2023-01-20T09:11:43.213Z,99468.38
2023-01-20T09:14:11.399Z,99471.34
2023-01-20T09:16:39.796Z,99467.38
2023-01-20T09:19:08.041Z,99464.31
2023-01-20T09:21:36.183Z,99465.16
2023-01-20T09:24:06.508Z,99461.91
2023-01-20T09:26:41.656Z,99449.03
2023-01-20T09:29:12.473Z,99442.13
2023-01-20T09:31:45.093Z,99441.66
2023-01-20T09:34:19.059Z,99432.88
2023-01-20T09:36:50.388Z,99424.28
2023-01-20T09:39:54.904Z,99418.31
2023-01-20T09:42:50.543Z,99416.06
2023-01-20T09:45:25.849Z,99418.03
2023-01-20T09:48:03.764Z,99415.66
2023-01-20T09:51:00.351Z,99415.94
2023-01-20T09:53:46.884Z,99415.34
2023-01-20T09:56:19.086Z,99406.91
2023-01-20T09:58:53.193Z,99397.16
2023-01-20T10:01:30.909Z,99397.44
2023-01-20T10:04:05.061Z,99390.63
2023-01-20T10:06:38.306Z,99369.44
2023-01-20T10:09:17.953Z,99369.59
2023-01-20T10:11:48.528Z,99357.25
2023-01-20T10:14:22.960Z,99350.19
2023-01-20T10:16:55.446Z,99343.44
2023-01-20T10:19:31.022Z,99330.56
2023-01-20T10:22:09.602Z,99334.94
2023-01-20T10:24:45.380Z,99337.78
2023-01-20T10:27:14.906Z,99344.28
2023-01-20T10:29:48.460Z,99348.22
2023-01-20T10:32:25.683Z,99351.91
2023-01-20T10:34:56.792Z,99351.91
2023-01-20T10:37:25.547Z,99350.38
2023-01-20T10:39:58.026Z,99344.28
2023-01-20T10:42:28.576Z,99350.81
2023-01-20T10:44:57.100Z,99359.84
2023-01-20T10:47:40.349Z,99346.13
2023-01-20T10:50:39.252Z,99367.31
2023-01-20T10:53:34.056Z,99363.22
2023-01-20T10:56:33.279Z,99374.13
2023-01-20T10:59:07.433Z,99369.00
2023-01-20T11:01:37.118Z,99378.75
2023-01-20T11:04:05.520Z,99375.38
2023-01-20T11:06:34.489Z,99365.22
2023-01-20T11:09:17.330Z,99367.75
2023-01-20T11:11:45.548Z,99365.22
2023-01-20T11:14:15.422Z,99367.00
2023-01-20T11:16:46.718Z,99360.09
2023-01-20T11:19:15.153Z,99354.03
2023-01-20T11:21:43.295Z,99348.81
2023-01-20T11:24:34.687Z,99336.38
2023-01-20T11:27:07.275Z,99335.78
2023-01-20T11:29:42.408Z,99341.16
2023-01-20T11:32:27.849Z,99328.31
2023-01-20T11:34:57.214Z,99324.50
2023-01-20T11:37:27.789Z,99320.97
2023-01-20T11:40:02.345Z,99320.97
2023-01-20T11:42:44.820Z,99299.91
2023-01-20T11:45:32.518Z,99309.78
2023-01-20T11:48:07.423Z,99308.84
2023-01-20T11:50:40.727Z,99311.78
2023-01-20T11:53:21.892Z,99306.66
2023-01-20T11:55:52.922Z,99309.34
2023-01-20T11:58:22.895Z,99301.84
2023-01-20T12:00:53.810Z,99301.59
2023-01-20T12:03:56.642Z,99298.06
2023-01-20T12:06:28.829Z,99295.63
2023-01-20T12:09:02.404Z,99291.41
2023-01-20T12:11:35.197Z,99300.44
2023-01-20T12:14:28.594Z,99302.53
2023-01-20T12:17:14.451Z,99299.00
2023-01-20T12:19:57.437Z,99295.63
2023-01-20T12:22:33.087Z,99294.78
2023-01-20T12:25:13.732Z,99301.28
2023-01-20T12:27:49.470Z,99299.56
2023-01-20T12:30:42.358Z,99305.78
2023-01-20T12:33:21.754Z,99304.25
2023-01-20T12:36:23.521Z,99303.41
2023-01-20T12:39:16.115Z,99300.81
2023-01-20T12:42:10.617Z,99295.75
2023-01-20T12:44:46.191Z,99302.81
2023-01-20T12:47:29.141Z,99293.34
2023-01-20T12:50:14.213Z,99302.09
2023-01-20T12:52:54.932Z,99296.19
2023-01-20T12:55:38.718Z,99302.38
2023-01-20T12:58:20.336Z,99305.19
2023-01-20T13:01:07.559Z,99311.66
2023-01-20T13:04:12.768Z,99303.78
2023-01-20T13:06:57.724Z,99322.69
2023-01-20T13:09:50.574Z,99321.69
2023-01-20T13:12:34.395Z,99315.63
2023-01-20T13:15:15.949Z,99320.28
2023-01-20T13:17:59.016Z,99323.91
2023-01-20T13:20:29.649Z,99326.59
2023-01-20T13:23:04.231Z,99326.88
2023-01-20T13:25:34.708Z,99325.03
2023-01-20T13:28:04.218Z,99328.56
2023-01-20T13:30:44.105Z,99339.47
2023-01-20T13:33:18.632Z,99325.25
2023-01-20T13:35:51.014Z,99328.50
2023-01-20T13:38:23.270Z,99322.31
2023-01-20T13:40:56.544Z,99326.63
2023-01-20T13:43:57.717Z,99328.19
2023-01-20T13:46:48.728Z,99327.06
2023-01-20T13:49:24.201Z,99333.13
2023-01-20T13:51:52.323Z,99336.66
2023-01-20T13:54:51.976Z,99323.09
2023-01-20T13:57:46.823Z,99317.97
2023-01-20T14:00:19.741Z,99325.31
2023-01-20T14:02:49.696Z,99333.81
2023-01-20T14:05:26.141Z,99355.84
2023-01-20T14:07:54.283Z,99356.69
2023-01-20T14:10:23.998Z,99353.84
2023-01-20T14:12:52.152Z,99353.84
2023-01-20T14:15:32.044Z,99352.16
2023-01-20T14:18:01.595Z,99356.84
2023-01-20T14:20:30.944Z,99357.00
2023-01-20T14:23:30.825Z,99352.72
2023-01-20T14:26:03.471Z,99370.00
2023-01-20T14:28:31.930Z,99367.59
2023-01-20T14:31:19.826Z,99358.97
2023-01-20T14:33:57.498Z,99353.88
2023-01-20T14:36:27.579Z,99355.88
2023-01-20T14:38:59.154Z,99367.91
2023-01-20T14:41:34.030Z,99359.56
2023-01-20T14:44:03.246Z,99371.16
2023-01-20T14:46:34.071Z,99377.50
2023-01-20T14:49:04.769Z,99378.66
2023-01-20T14:51:34.571Z,99373.69
2023-01-20T14:54:38.657Z,99374.81
2023-01-20T14:57:18.833Z,99381.34
2023-01-20T14:59:47.061Z,99373.69
2023-01-20T15:02:30.697Z,99373.13
2023-01-20T15:04:58.964Z,99376.06
2023-01-20T15:07:27.695Z,99378.19
2023-01-20T15:10:03.063Z,99383.00
2023-01-20T15:12:40.336Z,99377.34
2023-01-20T15:15:14.714Z,99396.13
2023-01-20T15:18:04.476Z,99388.34
2023-01-20T15:20:33.877Z,99388.75
2023-01-20T15:23:02.187Z,99386.34
2023-01-20T15:25:30.660Z,99395.66
2023-01-20T15:28:00.256Z,99394.94
2023-01-20T15:30:29.849Z,99389.13
2023-01-20T15:32:57.997Z,99390.22
2023-01-20T15:35:26.952Z,99391.50
2023-01-20T15:37:56.813Z,99395.31
2023-01-20T15:40:26.933Z,99389.50
2023-01-20T15:42:56.935Z,99401.34
2023-01-20T15:45:26.813Z,99398.81
2023-01-20T15:47:55.161Z,99403.59
2023-01-20T15:50:26.677Z,99391.31
2023-01-20T15:52:54.971Z,99381.13
2023-01-20T15:55:23.122Z,99388.59
2023-01-20T15:57:53.146Z,99398.31
2023-01-20T16:00:23.364Z,99405.81
2023-01-20T16:02:52.964Z,99405.94
2023-01-20T16:05:21.111Z,99406.19
2023-01-20T16:07:50.347Z,99404.91
2023-01-20T16:10:19.630Z,99418.31
2023-01-20T16:12:48.540Z,99418.59
2023-01-20T16:15:18.636Z,99418.84
2023-01-20T16:17:46.921Z,99420.81
2023-01-20T16:20:21.828Z,99427.28
2023-01-20T16:22:50.224Z,99424.00
2023-01-20T16:25:18.688Z,99415.41
2023-01-20T16:27:46.803Z,99406.38
2023-01-20T16:30:17.590Z,99424.16
2023-01-20T16:32:46.997Z,99426.16
2023-01-20T16:35:16.305Z,99414.06
2023-01-20T16:37:47.574Z,99423.44
2023-01-20T16:40:17.918Z,99403.88
2023-01-20T16:42:48.000Z,99404.03
2023-01-20T16:45:24.948Z,99423.56
2023-01-20T16:47:53.623Z,99424.22
2023-01-20T16:50:23.240Z,99431.56
2023-01-20T16:52:52.778Z,99429.63
2023-01-20T16:55:21.571Z,99433.19
2023-01-20T16:57:49.714Z,99423.56
2023-01-20T17:00:19.579Z,99434.31
2023-01-20T17:02:51.401Z,99441.53
2023-01-20T17:05:22.514Z,99429.38
2023-01-20T17:07:52.513Z,99421.72
2023-01-20T17:10:21.353Z,99417.78
2023-01-20T17:12:49.656Z,99419.88
2023-01-20T17:15:18.040Z,99416.94
2023-01-20T17:17:49.312Z,99415.66
2023-01-20T17:20:17.940Z,99431.38
2023-01-20T17:22:46.231Z,99427.38
2023-01-20T17:25:17.868Z,99419.47
2023-01-20T17:27:46.509Z,99419.47
2023-01-20T17:30:16.515Z,99413.53
2023-01-20T17:32:48.221Z,99418.06
2023-01-20T17:35:16.961Z,99416.63
2023-01-20T17:37:45.350Z,99417.75
2023-01-20T17:40:16.152Z,99424.38
2023-01-20T17:42:44.707Z,99409.50
2023-01-20T17:45:13.367Z,99425.91
2023-01-20T17:47:41.568Z,99425.44
2023-01-20T17:50:10.818Z,99413.13
2023-01-20T17:52:39.237Z,99416.78
2023-01-20T17:55:08.340Z,99423.25
2023-01-20T17:57:38.013Z,99429.56
2023-01-20T18:00:07.553Z,99425.28
2023-01-20T18:02:36.299Z,99421.03
2023-01-20T18:05:05.484Z,99413.63
2023-01-20T18:07:33.908Z,99411.47
2023-01-20T18:10:02.298Z,99422.66
2023-01-20T18:12:30.658Z,99418.81
2023-01-20T18:15:00.509Z,99423.75
2023-01-20T18:17:28.660Z,99421.91
2023-01-20T18:19:56.959Z,99412.84
2023-01-20T18:22:25.559Z,99408.81
2023-01-20T18:24:59.593Z,99404.19
2023-01-20T18:27:28.429Z,99404.88
2023-01-20T18:29:56.651Z,99398.81
2023-01-20T18:32:26.207Z,99400.88
2023-01-20T18:34:54.859Z,99401.97
2023-01-20T18:37:23.012Z,99396.09
2023-01-20T18:39:51.095Z,99388.59
2023-01-20T18:42:19.653Z,99385.72
2023-01-20T18:44:48.013Z,99389.63
2023-01-20T18:47:16.313Z,99391.72
2023-01-20T18:49:46.109Z,99395.81
2023-01-20T18:52:14.401Z,99392.97
2023-01-20T18:54:42.479Z,99393.72
2023-01-20T18:57:11.361Z,99392.25
2023-01-20T18:59:53.559Z,99392.81
2023-01-20T19:02:31.072Z,99393.00
2023-01-20T19:05:18.925Z,99381.94
2023-01-20T19:08:08.222Z,99370.13
2023-01-20T19:11:09.728Z,99372.66
2023-01-20T19:13:42.453Z,99375.38
2023-01-20T19:16:14.059Z,99384.31
2023-01-20T19:18:42.919Z,99389.00
2023-01-20T19:21:15.747Z,99389.53
2023-01-20T19:23:44.696Z,99394.75
2023-01-20T19:26:15.324Z,99392.06
2023-01-20T19:28:43.574Z,99394.16
2023-01-20T19:31:14.465Z,99398.19
2023-01-20T19:33:43.334Z,99399.91
2023-01-20T19:36:15.447Z,99403.81
2023-01-20T19:38:44.718Z,99408.88
2023-01-20T19:41:15.162Z,99410.28
2023-01-20T19:43:45.854Z,99403.75
2023-01-20T19:46:16.083Z,99407.13
2023-01-20T19:48:45.253Z,99408.38
2023-01-20T19:51:17.111Z,99399.94
2023-01-20T19:53:45.476Z,99411.28
2023-01-20T19:56:16.057Z,99414.34
2023-01-20T19:58:46.368Z,99398.38
2023-01-20T20:01:16.889Z,99389.78
2023-01-20T20:03:45.867Z,99399.25
2023-01-20T20:06:28.084Z,99418.81
2023-01-20T20:08:59.325Z,99417.97
2023-01-20T20:11:28.049Z,99417.28
2023-01-20T20:13:57.154Z,99436.19
2023-01-20T20:16:27.873Z,99432.66
2023-01-20T20:18:57.217Z,99441.72
2023-01-20T20:21:28.215Z,99430.94
2023-01-20T20:23:59.125Z,99435.34
2023-01-20T20:26:31.084Z,99429.22
2023-01-20T20:29:07.676Z,99438.88
2023-01-20T20:31:37.855Z,99437.88
2023-01-20T20:34:07.016Z,99447.50
2023-01-20T20:36:37.196Z,99448.19
2023-01-20T20:39:05.786Z,99446.16
2023-01-20T20:41:35.443Z,99423.53
2023-01-20T20:44:05.215Z,99440.47
2023-01-20T20:46:34.104Z,99450.94
2023-01-20T20:49:03.113Z,99447.91
2023-01-20T20:51:33.354Z,99454.34
2023-01-20T20:54:04.130Z,99465.81
2023-01-20T20:56:33.135Z,99462.66
2023-01-20T20:59:03.702Z,99464.88
2023-01-20T21:01:34.074Z,99466.56
2023-01-20T21:04:06.974Z,99465.06
2023-01-20T21:06:35.410Z,99467.63
2023-01-20T21:09:05.185Z,99473.84
2023-01-20T21:11:33.823Z,99463.38
2023-01-20T21:14:02.033Z,99468.94
2023-01-20T21:16:30.767Z,99469.25
2023-01-20T21:19:01.407Z,99469.59
2023-01-20T21:21:30.180Z,99474.63
2023-01-20T21:23:59.867Z,99476.13
2023-01-20T21:26:31.017Z,99473.19
2023-01-20T21:29:01.979Z,99482.63
2023-01-20T21:31:31.930Z,99486.97
2023-01-20T21:34:01.057Z,99493.69
2023-01-20T21:36:34.627Z,99494.31
2023-01-20T21:39:03.131Z,99500.34
2023-01-20T21:41:32.869Z,99499.13
2023-01-20T21:44:18.667Z,99496.22
2023-01-20T21:46:47.179Z,99502.22
2023-01-20T21:49:33.072Z,99503.72
2023-01-20T21:52:17.623Z,99498.88
2023-01-20T21:54:45.956Z,99506.78
2023-01-20T21:57:15.520Z,99503.31
2023-01-20T21:59:45.671Z,99516.06
2023-01-20T22:02:15.184Z,99519.41
2023-01-20T22:04:43.711Z,99522.69
2023-01-20T22:07:11.923Z,99528.69
2023-01-20T22:09:40.565Z,99534.72
2023-01-20T22:12:09.923Z,99530.75
2023-01-20T22:14:40.033Z,99531.22
2023-01-20T22:17:10.942Z,99531.13
2023-01-20T22:19:39.536Z,99535.09
2023-01-20T22:22:08.221Z,99545.34
2023-01-20T22:24:36.879Z,99542.41
2023-01-20T22:27:05.170Z,99548.25
2023-01-20T22:29:34.208Z,99542.75
2023-01-20T22:32:04.931Z,99544.75
2023-01-20T22:34:33.515Z,99535.13
2023-01-20T22:37:01.769Z,99540.22
2023-01-20T22:39:30.036Z,99543.50
2023-01-20T22:41:58.243Z,99542.13
2023-01-20T22:44:26.320Z,99548.25
2023-01-20T22:46:54.460Z,99542.75
2023-01-20T22:49:23.975Z,99541.78
2023-01-20T22:51:54.795Z,99545.31
2023-01-20T22:54:23.152Z,99541.53
2023-01-20T22:56:51.315Z,99543.41
2023-01-20T22:59:19.407Z,99546.66
2023-01-20T23:01:47.676Z,99546.22
2023-01-20T23:04:15.966Z,99542.41
2023-01-20T23:06:45.509Z,99542.28
2023-01-20T23:09:14.469Z,99549.06
2023-01-20T23:11:43.256Z,99540.81
2023-01-20T23:14:13.433Z,99543.09
2023-01-20T23:16:41.909Z,99543.09
2023-01-20T23:19:10.895Z,99546.75
2023-01-20T23:21:39.492Z,99542.94
2023-01-20T23:24:09.576Z,99561.31
2023-01-20T23:26:37.652Z,99553.81
2023-01-20T23:29:05.775Z,99565.94
2023-01-20T23:31:35.282Z,99564.53
2023-01-20T23:34:06.835Z,99564.22
2023-01-20T23:36:36.642Z,99560.97
2023-01-20T23:39:04.953Z,99567.72
2023-01-20T23:41:34.388Z,99572.91
2023-01-20T23:44:03.439Z,99579.28
2023-01-20T23:46:31.580Z,99584.91
2023-01-20T23:48:59.951Z,99586.31
2023-01-20T23:51:28.106Z,99586.88
2023-01-20T23:53:56.825Z,99591.53
2023-01-20T23:56:25.997Z,99587.53
2023-01-20T23:58:55.520Z,99581.44
